sensor_id;sensor_type;location;lat;lon;timestamp;temperature;humidity
18456;DHT22;9357;49.900;8.208;2022-12-05T00:00:35;3.30;99.90
18456;DHT22;9357;49.900;8.208;2022-12-05T00:02:08;3.30;99.90
18456;DHT22;9357;49.900;8.208;2022-12-05T00:03:41;3.30;99.90
18456;DHT22;9357;49.900;8.208;2022-12-05T00:05:13;3.40;99.90
18456;DHT22;9357;49.900;8.208;2022-12-05T00:06:46;3.40;99.90
18456;DHT22;9357;49.900;8.208;2022-12-05T00:08:19;3.30;99.90
18456;DHT22;9357;49.900;8.208;2022-12-05T00:09:51;3.40;99.90
18456;DHT22;9357;49.900;8.208;2022-12-05T00:11:26;3.40;99.90
18456;DHT22;9357;49.900;8.208;2022-12-05T00:12:59;3.40;99.90
18456;DHT22;9357;49.900;8.208;2022-12-05T00:14:32;3.40;99.90
18456;DHT22;9357;49.900;8.208;2022-12-05T00:16:08;3.40;99.90
18456;DHT22;9357;49.900;8.208;2022-12-05T00:17:40;3.30;99.90
18456;DHT22;9357;49.900;8.208;2022-12-05T00:19:14;3.40;99.90
18456;DHT22;9357;49.900;8.208;2022-12-05T00:20:47;3.40;99.90
18456;DHT22;9357;49.900;8.208;2022-12-05T00:22:20;3.40;99.90
18456;DHT22;9357;49.900;8.208;2022-12-05T00:23:54;3.40;99.90
18456;DHT22;9357;49.900;8.208;2022-12-05T00:25:26;3.40;99.90
18456;DHT22;9357;49.900;8.208;2022-12-05T00:26:59;3.40;99.90
18456;DHT22;9357;49.900;8.208;2022-12-05T00:28:33;3.40;99.90
18456;DHT22;9357;49.900;8.208;2022-12-05T00:30:06;3.40;99.90
18456;DHT22;9357;49.900;8.208;2022-12-05T00:31:40;3.40;99.90
18456;DHT22;9357;49.900;8.208;2022-12-05T00:33:13;3.40;99.90
18456;DHT22;9357;49.900;8.208;2022-12-05T00:34:46;3.40;99.90
18456;DHT22;9357;49.900;8.208;2022-12-05T00:36:20;3.40;99.90
18456;DHT22;9357;49.900;8.208;2022-12-05T00:37:53;3.40;99.90
18456;DHT22;9357;49.900;8.208;2022-12-05T00:39:26;3.30;99.90
18456;DHT22;9357;49.900;8.208;2022-12-05T00:41:01;3.40;99.90
18456;DHT22;9357;49.900;8.208;2022-12-05T00:42:34;3.40;99.90
18456;DHT22;9357;49.900;8.208;2022-12-05T00:44:08;3.40;99.90
18456;DHT22;9357;49.900;8.208;2022-12-05T00:45:40;3.40;99.90
18456;DHT22;9357;49.900;8.208;2022-12-05T00:47:15;3.40;99.90
18456;DHT22;9357;49.900;8.208;2022-12-05T00:48:48;3.40;99.90
18456;DHT22;9357;49.900;8.208;2022-12-05T00:50:20;3.40;99.90
18456;DHT22;9357;49.900;8.208;2022-12-05T00:51:53;3.40;99.90
18456;DHT22;9357;49.900;8.208;2022-12-05T00:53:26;3.40;99.90
18456;DHT22;9357;49.900;8.208;2022-12-05T00:54:57;3.40;99.90
18456;DHT22;9357;49.900;8.208;2022-12-05T00:56:31;3.40;99.90
18456;DHT22;9357;49.900;8.208;2022-12-05T00:58:03;3.30;99.90
18456;DHT22;9357;49.900;8.208;2022-12-05T00:59:36;3.40;99.90
18456;DHT22;9357;49.900;8.208;2022-12-05T01:01:10;3.40;99.90
18456;DHT22;9357;49.900;8.208;2022-12-05T01:02:43;3.30;99.90
18456;DHT22;9357;49.900;8.208;2022-12-05T01:04:18;3.30;99.90
18456;DHT22;9357;49.900;8.208;2022-12-05T01:05:51;3.30;99.90
18456;DHT22;9357;49.900;8.208;2022-12-05T01:07:22;3.30;99.90
18456;DHT22;9357;49.900;8.208;2022-12-05T01:08:56;3.40;99.90
18456;DHT22;9357;49.900;8.208;2022-12-05T01:10:29;3.30;99.90
18456;DHT22;9357;49.900;8.208;2022-12-05T01:12:02;3.30;99.90
18456;DHT22;9357;49.900;8.208;2022-12-05T01:13:35;3.30;99.90
18456;DHT22;9357;49.900;8.208;2022-12-05T01:15:08;3.40;99.90
18456;DHT22;9357;49.900;8.208;2022-12-05T01:16:42;3.30;99.90
18456;DHT22;9357;49.900;8.208;2022-12-05T01:18:17;3.30;99.90
18456;DHT22;9357;49.900;8.208;2022-12-05T01:19:49;3.30;99.90
18456;DHT22;9357;49.900;8.208;2022-12-05T01:21:22;3.30;99.90
18456;DHT22;9357;49.900;8.208;2022-12-05T01:22:54;3.30;99.90
18456;DHT22;9357;49.900;8.208;2022-12-05T01:24:27;3.20;99.90
18456;DHT22;9357;49.900;8.208;2022-12-05T01:26:04;3.30;99.90
18456;DHT22;9357;49.900;8.208;2022-12-05T01:27:36;3.30;99.90
18456;DHT22;9357;49.900;8.208;2022-12-05T01:29:10;3.20;99.90
18456;DHT22;9357;49.900;8.208;2022-12-05T01:30:46;3.30;99.90
18456;DHT22;9357;49.900;8.208;2022-12-05T01:32:19;3.30;99.90
18456;DHT22;9357;49.900;8.208;2022-12-05T01:33:56;3.30;99.90
18456;DHT22;9357;49.900;8.208;2022-12-05T01:35:30;3.30;99.90
18456;DHT22;9357;49.900;8.208;2022-12-05T01:37:03;3.30;99.90
18456;DHT22;9357;49.900;8.208;2022-12-05T01:38:37;3.30;99.90
18456;DHT22;9357;49.900;8.208;2022-12-05T01:40:09;3.30;99.90
18456;DHT22;9357;49.900;8.208;2022-12-05T01:41:44;3.30;99.90
18456;DHT22;9357;49.900;8.208;2022-12-05T01:43:17;3.30;99.90
18456;DHT22;9357;49.900;8.208;2022-12-05T01:45:09;3.30;99.90
18456;DHT22;9357;49.900;8.208;2022-12-05T01:46:46;3.40;99.90
18456;DHT22;9357;49.900;8.208;2022-12-05T01:48:22;3.40;99.90
18456;DHT22;9357;49.900;8.208;2022-12-05T01:49:58;3.40;99.90
18456;DHT22;9357;49.900;8.208;2022-12-05T01:51:32;3.40;99.90
18456;DHT22;9357;49.900;8.208;2022-12-05T01:53:05;3.30;99.90
18456;DHT22;9357;49.900;8.208;2022-12-05T01:54:38;3.40;99.90
18456;DHT22;9357;49.900;8.208;2022-12-05T01:56:11;3.40;99.90
18456;DHT22;9357;49.900;8.208;2022-12-05T01:57:45;3.40;99.90
18456;DHT22;9357;49.900;8.208;2022-12-05T01:59:19;3.40;99.90
18456;DHT22;9357;49.900;8.208;2022-12-05T02:00:53;3.40;99.90
18456;DHT22;9357;49.900;8.208;2022-12-05T02:02:26;3.30;99.90
18456;DHT22;9357;49.900;8.208;2022-12-05T02:04:01;3.30;99.90
18456;DHT22;9357;49.900;8.208;2022-12-05T02:05:36;3.30;99.90
18456;DHT22;9357;49.900;8.208;2022-12-05T02:07:09;3.30;99.90
18456;DHT22;9357;49.900;8.208;2022-12-05T02:08:42;3.30;99.90
18456;DHT22;9357;49.900;8.208;2022-12-05T02:10:16;3.30;99.90
18456;DHT22;9357;49.900;8.208;2022-12-05T02:11:52;3.30;99.90
18456;DHT22;9357;49.900;8.208;2022-12-05T02:13:37;3.30;99.90
18456;DHT22;9357;49.900;8.208;2022-12-05T02:15:35;3.30;99.90
18456;DHT22;9357;49.900;8.208;2022-12-05T02:17:20;3.30;99.90
18456;DHT22;9357;49.900;8.208;2022-12-05T02:21:05;3.30;99.90
18456;DHT22;9357;49.900;8.208;2022-12-05T02:23:17;3.30;99.90
18456;DHT22;9357;49.900;8.208;2022-12-05T02:25:02;3.30;99.90
18456;DHT22;9357;49.900;8.208;2022-12-05T02:26:58;3.30;99.90
18456;DHT22;9357;49.900;8.208;2022-12-05T02:28:55;3.40;99.90
18456;DHT22;9357;49.900;8.208;2022-12-05T02:30:38;3.40;99.90
18456;DHT22;9357;49.900;8.208;2022-12-05T02:32:17;3.40;99.90
18456;DHT22;9357;49.900;8.208;2022-12-05T02:33:57;3.40;99.90
18456;DHT22;9357;49.900;8.208;2022-12-05T02:35:38;3.40;99.90
18456;DHT22;9357;49.900;8.208;2022-12-05T02:37:16;3.40;99.90
18456;DHT22;9357;49.900;8.208;2022-12-05T02:38:59;3.40;99.90
18456;DHT22;9357;49.900;8.208;2022-12-05T02:40:40;3.40;99.90
18456;DHT22;9357;49.900;8.208;2022-12-05T02:42:19;3.40;99.90
18456;DHT22;9357;49.900;8.208;2022-12-05T02:43:56;3.40;99.90
18456;DHT22;9357;49.900;8.208;2022-12-05T02:45:33;3.40;99.90
18456;DHT22;9357;49.900;8.208;2022-12-05T02:47:08;3.40;99.90
18456;DHT22;9357;49.900;8.208;2022-12-05T02:48:44;3.40;99.90
18456;DHT22;9357;49.900;8.208;2022-12-05T02:50:20;3.40;99.90
18456;DHT22;9357;49.900;8.208;2022-12-05T02:51:57;3.40;99.90
18456;DHT22;9357;49.900;8.208;2022-12-05T02:53:30;3.40;99.90
18456;DHT22;9357;49.900;8.208;2022-12-05T02:55:06;3.40;99.90
18456;DHT22;9357;49.900;8.208;2022-12-05T02:56:39;3.40;99.90
18456;DHT22;9357;49.900;8.208;2022-12-05T02:58:18;3.40;99.90
18456;DHT22;9357;49.900;8.208;2022-12-05T02:59:52;3.40;99.90
18456;DHT22;9357;49.900;8.208;2022-12-05T03:01:28;3.40;99.90
18456;DHT22;9357;49.900;8.208;2022-12-05T03:03:13;3.40;99.90
18456;DHT22;9357;49.900;8.208;2022-12-05T03:04:46;3.40;99.90
18456;DHT22;9357;49.900;8.208;2022-12-05T03:06:22;3.40;99.90
18456;DHT22;9357;49.900;8.208;2022-12-05T03:07:59;3.40;99.90
18456;DHT22;9357;49.900;8.208;2022-12-05T03:09:37;3.40;99.90
18456;DHT22;9357;49.900;8.208;2022-12-05T03:11:12;3.40;99.90
18456;DHT22;9357;49.900;8.208;2022-12-05T03:12:50;3.40;99.90
18456;DHT22;9357;49.900;8.208;2022-12-05T03:14:29;3.40;99.90
18456;DHT22;9357;49.900;8.208;2022-12-05T03:16:06;3.40;99.90
18456;DHT22;9357;49.900;8.208;2022-12-05T03:17:45;3.40;99.90
18456;DHT22;9357;49.900;8.208;2022-12-05T03:19:24;3.40;99.90
18456;DHT22;9357;49.900;8.208;2022-12-05T03:21:03;3.40;99.90
18456;DHT22;9357;49.900;8.208;2022-12-05T03:22:39;3.40;99.90
18456;DHT22;9357;49.900;8.208;2022-12-05T03:24:15;3.40;99.90
18456;DHT22;9357;49.900;8.208;2022-12-05T03:25:56;3.40;99.90
18456;DHT22;9357;49.900;8.208;2022-12-05T03:27:39;3.40;99.90
18456;DHT22;9357;49.900;8.208;2022-12-05T03:29:24;3.40;99.90
18456;DHT22;9357;49.900;8.208;2022-12-05T03:31:01;3.40;99.90
18456;DHT22;9357;49.900;8.208;2022-12-05T03:32:38;3.40;99.90
18456;DHT22;9357;49.900;8.208;2022-12-05T03:34:13;3.40;99.90
18456;DHT22;9357;49.900;8.208;2022-12-05T03:35:55;3.40;99.90
18456;DHT22;9357;49.900;8.208;2022-12-05T03:37:37;3.40;99.90
18456;DHT22;9357;49.900;8.208;2022-12-05T03:39:18;3.40;99.90
18456;DHT22;9357;49.900;8.208;2022-12-05T03:40:59;3.40;99.90
18456;DHT22;9357;49.900;8.208;2022-12-05T03:42:35;3.40;99.90
18456;DHT22;9357;49.900;8.208;2022-12-05T03:44:13;3.40;99.90
18456;DHT22;9357;49.900;8.208;2022-12-05T03:45:54;3.40;99.90
18456;DHT22;9357;49.900;8.208;2022-12-05T03:47:32;3.50;99.90
18456;DHT22;9357;49.900;8.208;2022-12-05T03:49:10;3.40;99.90
18456;DHT22;9357;49.900;8.208;2022-12-05T03:50:46;3.40;99.90
18456;DHT22;9357;49.900;8.208;2022-12-05T03:52:24;3.40;99.90
18456;DHT22;9357;49.900;8.208;2022-12-05T03:54:02;3.40;99.90
18456;DHT22;9357;49.900;8.208;2022-12-05T03:55:37;3.40;99.90
18456;DHT22;9357;49.900;8.208;2022-12-05T03:57:14;3.40;99.90
18456;DHT22;9357;49.900;8.208;2022-12-05T03:58:52;3.40;99.90
18456;DHT22;9357;49.900;8.208;2022-12-05T04:00:31;3.40;99.90
18456;DHT22;9357;49.900;8.208;2022-12-05T04:02:09;3.40;99.90
18456;DHT22;9357;49.900;8.208;2022-12-05T04:03:46;3.50;99.90
18456;DHT22;9357;49.900;8.208;2022-12-05T04:05:24;3.50;99.90
18456;DHT22;9357;49.900;8.208;2022-12-05T04:07:00;3.50;99.90
18456;DHT22;9357;49.900;8.208;2022-12-05T04:08:38;3.50;99.90
18456;DHT22;9357;49.900;8.208;2022-12-05T04:10:15;3.50;99.90
18456;DHT22;9357;49.900;8.208;2022-12-05T04:11:51;3.50;99.90
18456;DHT22;9357;49.900;8.208;2022-12-05T04:13:29;3.50;99.90
18456;DHT22;9357;49.900;8.208;2022-12-05T04:15:08;3.50;99.90
18456;DHT22;9357;49.900;8.208;2022-12-05T04:16:46;3.50;99.90
18456;DHT22;9357;49.900;8.208;2022-12-05T04:18:36;3.40;99.90
18456;DHT22;9357;49.900;8.208;2022-12-05T04:20:12;3.40;99.90
18456;DHT22;9357;49.900;8.208;2022-12-05T04:22:03;3.40;99.90
18456;DHT22;9357;49.900;8.208;2022-12-05T04:23:37;3.40;99.90
18456;DHT22;9357;49.900;8.208;2022-12-05T04:25:16;3.40;99.90
18456;DHT22;9357;49.900;8.208;2022-12-05T04:27:14;3.40;99.90
18456;DHT22;9357;49.900;8.208;2022-12-05T04:28:56;3.40;99.90
18456;DHT22;9357;49.900;8.208;2022-12-05T04:30:35;3.40;99.90
18456;DHT22;9357;49.900;8.208;2022-12-05T04:32:11;3.50;99.90
18456;DHT22;9357;49.900;8.208;2022-12-05T04:33:48;3.40;99.90
18456;DHT22;9357;49.900;8.208;2022-12-05T04:35:26;3.50;99.90
18456;DHT22;9357;49.900;8.208;2022-12-05T04:37:03;3.40;99.90
18456;DHT22;9357;49.900;8.208;2022-12-05T04:38:48;3.40;99.90
18456;DHT22;9357;49.900;8.208;2022-12-05T04:40:25;3.40;99.90
18456;DHT22;9357;49.900;8.208;2022-12-05T04:42:00;3.30;99.90
18456;DHT22;9357;49.900;8.208;2022-12-05T04:43:37;3.30;99.90
18456;DHT22;9357;49.900;8.208;2022-12-05T04:45:13;3.30;99.90
18456;DHT22;9357;49.900;8.208;2022-12-05T04:46:48;3.30;99.90
18456;DHT22;9357;49.900;8.208;2022-12-05T04:48:23;3.20;99.90
18456;DHT22;9357;49.900;8.208;2022-12-05T04:49:58;3.20;99.90
18456;DHT22;9357;49.900;8.208;2022-12-05T04:51:33;3.20;99.90
18456;DHT22;9357;49.900;8.208;2022-12-05T04:53:08;3.20;99.90
18456;DHT22;9357;49.900;8.208;2022-12-05T04:54:47;3.20;99.90
18456;DHT22;9357;49.900;8.208;2022-12-05T04:56:22;3.20;99.90
18456;DHT22;9357;49.900;8.208;2022-12-05T04:58:02;3.10;99.90
18456;DHT22;9357;49.900;8.208;2022-12-05T04:59:37;3.10;99.90
18456;DHT22;9357;49.900;8.208;2022-12-05T05:01:13;3.10;99.90
18456;DHT22;9357;49.900;8.208;2022-12-05T05:02:50;3.10;99.90
18456;DHT22;9357;49.900;8.208;2022-12-05T05:04:30;3.10;99.90
18456;DHT22;9357;49.900;8.208;2022-12-05T05:06:04;3.10;99.90
18456;DHT22;9357;49.900;8.208;2022-12-05T05:07:42;3.10;99.90
18456;DHT22;9357;49.900;8.208;2022-12-05T05:09:14;3.10;99.90
18456;DHT22;9357;49.900;8.208;2022-12-05T05:10:56;3.10;99.90
18456;DHT22;9357;49.900;8.208;2022-12-05T05:12:31;3.10;99.90
18456;DHT22;9357;49.900;8.208;2022-12-05T05:14:04;3.10;99.90
18456;DHT22;9357;49.900;8.208;2022-12-05T05:15:36;3.10;99.90
18456;DHT22;9357;49.900;8.208;2022-12-05T05:17:09;3.10;99.90
18456;DHT22;9357;49.900;8.208;2022-12-05T05:18:42;3.10;99.90
18456;DHT22;9357;49.900;8.208;2022-12-05T05:20:15;3.10;99.90
18456;DHT22;9357;49.900;8.208;2022-12-05T05:21:57;3.20;99.90
18456;DHT22;9357;49.900;8.208;2022-12-05T05:23:30;3.10;99.90
18456;DHT22;9357;49.900;8.208;2022-12-05T05:25:03;3.20;99.90
18456;DHT22;9357;49.900;8.208;2022-12-05T05:26:40;3.20;99.90
18456;DHT22;9357;49.900;8.208;2022-12-05T05:28:13;3.20;99.90
18456;DHT22;9357;49.900;8.208;2022-12-05T05:29:45;3.20;99.90
18456;DHT22;9357;49.900;8.208;2022-12-05T05:31:18;3.30;99.90
18456;DHT22;9357;49.900;8.208;2022-12-05T05:32:52;3.30;99.90
18456;DHT22;9357;49.900;8.208;2022-12-05T05:34:24;3.30;99.90
18456;DHT22;9357;49.900;8.208;2022-12-05T05:36:02;3.30;99.90
18456;DHT22;9357;49.900;8.208;2022-12-05T05:37:34;3.30;99.90
18456;DHT22;9357;49.900;8.208;2022-12-05T05:39:11;3.30;99.90
18456;DHT22;9357;49.900;8.208;2022-12-05T05:40:45;3.40;99.90
18456;DHT22;9357;49.900;8.208;2022-12-05T05:42:19;3.40;99.90
18456;DHT22;9357;49.900;8.208;2022-12-05T05:43:51;3.40;99.90
18456;DHT22;9357;49.900;8.208;2022-12-05T05:45:24;3.40;99.90
18456;DHT22;9357;49.900;8.208;2022-12-05T05:46:57;3.40;99.90
18456;DHT22;9357;49.900;8.208;2022-12-05T05:48:30;3.40;99.90
18456;DHT22;9357;49.900;8.208;2022-12-05T05:50:03;3.40;99.90
18456;DHT22;9357;49.900;8.208;2022-12-05T05:51:35;3.40;99.90
18456;DHT22;9357;49.900;8.208;2022-12-05T05:53:08;3.40;99.90
18456;DHT22;9357;49.900;8.208;2022-12-05T05:54:41;3.40;99.90
18456;DHT22;9357;49.900;8.208;2022-12-05T05:56:15;3.40;99.90
18456;DHT22;9357;49.900;8.208;2022-12-05T05:57:54;3.40;99.90
18456;DHT22;9357;49.900;8.208;2022-12-05T05:59:26;3.40;99.90
18456;DHT22;9357;49.900;8.208;2022-12-05T06:01:02;3.50;99.90
18456;DHT22;9357;49.900;8.208;2022-12-05T06:02:35;3.50;99.90
18456;DHT22;9357;49.900;8.208;2022-12-05T06:04:08;3.50;99.90
18456;DHT22;9357;49.900;8.208;2022-12-05T06:05:41;3.50;99.90
18456;DHT22;9357;49.900;8.208;2022-12-05T06:07:20;3.50;99.90
18456;DHT22;9357;49.900;8.208;2022-12-05T06:08:53;3.50;99.90
18456;DHT22;9357;49.900;8.208;2022-12-05T06:10:26;3.50;99.90
18456;DHT22;9357;49.900;8.208;2022-12-05T06:12:00;3.50;99.90
18456;DHT22;9357;49.900;8.208;2022-12-05T06:13:34;3.50;99.90
18456;DHT22;9357;49.900;8.208;2022-12-05T06:15:08;3.50;99.90
18456;DHT22;9357;49.900;8.208;2022-12-05T06:16:41;3.50;99.90
18456;DHT22;9357;49.900;8.208;2022-12-05T06:18:13;3.50;99.90
18456;DHT22;9357;49.900;8.208;2022-12-05T06:19:46;3.50;99.90
18456;DHT22;9357;49.900;8.208;2022-12-05T06:21:20;3.50;99.90
18456;DHT22;9357;49.900;8.208;2022-12-05T06:22:53;3.60;99.90
18456;DHT22;9357;49.900;8.208;2022-12-05T06:24:25;3.60;99.90
18456;DHT22;9357;49.900;8.208;2022-12-05T06:25:58;3.60;99.90
18456;DHT22;9357;49.900;8.208;2022-12-05T06:27:31;3.60;99.90
18456;DHT22;9357;49.900;8.208;2022-12-05T06:29:05;3.60;99.90
18456;DHT22;9357;49.900;8.208;2022-12-05T06:30:38;3.60;99.90
18456;DHT22;9357;49.900;8.208;2022-12-05T06:32:11;3.60;99.90
18456;DHT22;9357;49.900;8.208;2022-12-05T06:33:44;3.60;99.90
18456;DHT22;9357;49.900;8.208;2022-12-05T06:35:17;3.60;99.90
18456;DHT22;9357;49.900;8.208;2022-12-05T06:36:50;3.60;99.90
18456;DHT22;9357;49.900;8.208;2022-12-05T06:38:22;3.60;99.90
18456;DHT22;9357;49.900;8.208;2022-12-05T06:39:55;3.60;99.90
18456;DHT22;9357;49.900;8.208;2022-12-05T06:41:28;3.60;99.90
18456;DHT22;9357;49.900;8.208;2022-12-05T06:43:01;3.60;99.90
18456;DHT22;9357;49.900;8.208;2022-12-05T06:44:35;3.60;99.90
18456;DHT22;9357;49.900;8.208;2022-12-05T06:46:11;3.60;99.90
18456;DHT22;9357;49.900;8.208;2022-12-05T06:47:44;3.60;99.90
18456;DHT22;9357;49.900;8.208;2022-12-05T06:49:17;3.60;99.90
18456;DHT22;9357;49.900;8.208;2022-12-05T06:50:50;3.60;99.90
18456;DHT22;9357;49.900;8.208;2022-12-05T06:52:23;3.60;99.90
18456;DHT22;9357;49.900;8.208;2022-12-05T06:53:56;3.60;99.90
18456;DHT22;9357;49.900;8.208;2022-12-05T06:55:29;3.60;99.90
18456;DHT22;9357;49.900;8.208;2022-12-05T06:57:02;3.60;99.90
18456;DHT22;9357;49.900;8.208;2022-12-05T06:58:34;3.60;99.90
18456;DHT22;9357;49.900;8.208;2022-12-05T07:00:10;3.60;99.90
18456;DHT22;9357;49.900;8.208;2022-12-05T07:02:00;3.60;99.90
18456;DHT22;9357;49.900;8.208;2022-12-05T07:03:33;3.80;99.90
18456;DHT22;9357;49.900;8.208;2022-12-05T07:05:05;4.00;99.90
18456;DHT22;9357;49.900;8.208;2022-12-05T07:06:39;4.10;99.90
18456;DHT22;9357;49.900;8.208;2022-12-05T07:08:18;4.30;99.90
18456;DHT22;9357;49.900;8.208;2022-12-05T07:09:50;4.50;99.90
18456;DHT22;9357;49.900;8.208;2022-12-05T07:11:24;4.60;99.90
18456;DHT22;9357;49.900;8.208;2022-12-05T07:12:57;4.80;99.90
18456;DHT22;9357;49.900;8.208;2022-12-05T07:14:30;5.00;99.90
18456;DHT22;9357;49.900;8.208;2022-12-05T07:16:19;5.10;99.90
18456;DHT22;9357;49.900;8.208;2022-12-05T07:17:52;5.40;99.90
18456;DHT22;9357;49.900;8.208;2022-12-05T07:19:25;5.50;99.90
18456;DHT22;9357;49.900;8.208;2022-12-05T07:20:59;5.70;99.90
18456;DHT22;9357;49.900;8.208;2022-12-05T07:22:47;5.90;99.90
18456;DHT22;9357;49.900;8.208;2022-12-05T07:24:20;6.00;99.90
18456;DHT22;9357;49.900;8.208;2022-12-05T07:25:53;6.10;99.90
18456;DHT22;9357;49.900;8.208;2022-12-05T07:27:26;6.10;99.90
18456;DHT22;9357;49.900;8.208;2022-12-05T07:28:59;6.10;99.90
18456;DHT22;9357;49.900;8.208;2022-12-05T07:30:31;6.00;99.90
18456;DHT22;9357;49.900;8.208;2022-12-05T07:32:06;6.00;99.90
18456;DHT22;9357;49.900;8.208;2022-12-05T07:33:40;6.00;99.90
18456;DHT22;9357;49.900;8.208;2022-12-05T07:35:12;5.90;99.90
18456;DHT22;9357;49.900;8.208;2022-12-05T07:36:45;5.90;99.90
18456;DHT22;9357;49.900;8.208;2022-12-05T07:38:18;5.90;99.90
18456;DHT22;9357;49.900;8.208;2022-12-05T07:39:51;5.80;99.90
18456;DHT22;9357;49.900;8.208;2022-12-05T07:41:26;5.80;99.90
18456;DHT22;9357;49.900;8.208;2022-12-05T07:42:59;5.70;99.90
18456;DHT22;9357;49.900;8.208;2022-12-05T07:44:32;5.70;99.90
18456;DHT22;9357;49.900;8.208;2022-12-05T07:46:06;5.60;99.90
18456;DHT22;9357;49.900;8.208;2022-12-05T07:47:40;5.50;99.90
18456;DHT22;9357;49.900;8.208;2022-12-05T07:49:13;5.50;99.90
18456;DHT22;9357;49.900;8.208;2022-12-05T07:50:46;5.40;99.90
18456;DHT22;9357;49.900;8.208;2022-12-05T07:52:19;5.30;99.90
18456;DHT22;9357;49.900;8.208;2022-12-05T07:53:52;5.20;99.90
18456;DHT22;9357;49.900;8.208;2022-12-05T07:55:25;5.20;99.90
18456;DHT22;9357;49.900;8.208;2022-12-05T07:56:57;5.10;99.90
18456;DHT22;9357;49.900;8.208;2022-12-05T07:58:31;5.00;99.90
18456;DHT22;9357;49.900;8.208;2022-12-05T08:00:05;4.90;99.90
18456;DHT22;9357;49.900;8.208;2022-12-05T08:01:38;4.80;99.90
18456;DHT22;9357;49.900;8.208;2022-12-05T08:03:12;4.80;99.90
18456;DHT22;9357;49.900;8.208;2022-12-05T08:04:45;4.70;99.90
18456;DHT22;9357;49.900;8.208;2022-12-05T08:06:19;4.60;99.90
18456;DHT22;9357;49.900;8.208;2022-12-05T08:07:52;4.50;99.90
18456;DHT22;9357;49.900;8.208;2022-12-05T08:09:25;4.50;99.90
18456;DHT22;9357;49.900;8.208;2022-12-05T08:11:02;4.40;99.90
18456;DHT22;9357;49.900;8.208;2022-12-05T08:12:35;4.40;99.90
18456;DHT22;9357;49.900;8.208;2022-12-05T08:14:12;4.30;99.90
18456;DHT22;9357;49.900;8.208;2022-12-05T08:15:45;4.30;99.90
18456;DHT22;9357;49.900;8.208;2022-12-05T08:17:17;4.20;99.90
18456;DHT22;9357;49.900;8.208;2022-12-05T08:18:54;4.20;99.90
18456;DHT22;9357;49.900;8.208;2022-12-05T08:20:27;4.10;99.90
18456;DHT22;9357;49.900;8.208;2022-12-05T08:22:01;4.10;99.90
18456;DHT22;9357;49.900;8.208;2022-12-05T08:23:34;4.10;99.90
18456;DHT22;9357;49.900;8.208;2022-12-05T08:25:07;4.00;99.90
18456;DHT22;9357;49.900;8.208;2022-12-05T08:26:40;4.00;99.90
18456;DHT22;9357;49.900;8.208;2022-12-05T08:28:13;4.00;99.90
18456;DHT22;9357;49.900;8.208;2022-12-05T08:29:46;3.90;99.90
18456;DHT22;9357;49.900;8.208;2022-12-05T08:31:20;3.90;99.90
18456;DHT22;9357;49.900;8.208;2022-12-05T08:32:54;3.90;99.90
18456;DHT22;9357;49.900;8.208;2022-12-05T08:34:29;3.90;99.90
18456;DHT22;9357;49.900;8.208;2022-12-05T08:36:02;3.90;99.90
18456;DHT22;9357;49.900;8.208;2022-12-05T08:37:35;3.90;99.90
18456;DHT22;9357;49.900;8.208;2022-12-05T08:39:11;3.90;99.90
18456;DHT22;9357;49.900;8.208;2022-12-05T08:40:45;3.90;99.90
18456;DHT22;9357;49.900;8.208;2022-12-05T08:42:18;3.90;99.90
18456;DHT22;9357;49.900;8.208;2022-12-05T08:43:51;3.90;99.90
18456;DHT22;9357;49.900;8.208;2022-12-05T08:45:24;3.80;99.90
18456;DHT22;9357;49.900;8.208;2022-12-05T08:46:57;3.90;99.90
18456;DHT22;9357;49.900;8.208;2022-12-05T08:48:30;3.80;99.90
18456;DHT22;9357;49.900;8.208;2022-12-05T08:50:06;3.80;99.90
18456;DHT22;9357;49.900;8.208;2022-12-05T08:51:40;3.90;99.90
18456;DHT22;9357;49.900;8.208;2022-12-05T08:53:13;3.90;99.90
18456;DHT22;9357;49.900;8.208;2022-12-05T08:54:46;3.90;99.90
18456;DHT22;9357;49.900;8.208;2022-12-05T08:56:19;3.90;99.90
18456;DHT22;9357;49.900;8.208;2022-12-05T08:57:57;4.00;99.90
18456;DHT22;9357;49.900;8.208;2022-12-05T08:59:30;4.00;99.90
18456;DHT22;9357;49.900;8.208;2022-12-05T09:01:04;4.00;99.90
18456;DHT22;9357;49.900;8.208;2022-12-05T09:02:37;4.00;99.90
18456;DHT22;9357;49.900;8.208;2022-12-05T09:04:10;4.00;99.90
18456;DHT22;9357;49.900;8.208;2022-12-05T09:05:44;4.00;99.90
18456;DHT22;9357;49.900;8.208;2022-12-05T09:07:17;3.90;99.90
18456;DHT22;9357;49.900;8.208;2022-12-05T09:08:52;3.90;99.90
18456;DHT22;9357;49.900;8.208;2022-12-05T09:10:25;4.00;99.90
18456;DHT22;9357;49.900;8.208;2022-12-05T09:11:58;4.00;99.90
18456;DHT22;9357;49.900;8.208;2022-12-05T09:13:31;4.00;99.90
18456;DHT22;9357;49.900;8.208;2022-12-05T09:15:06;4.00;99.90
18456;DHT22;9357;49.900;8.208;2022-12-05T09:16:41;4.10;99.90
18456;DHT22;9357;49.900;8.208;2022-12-05T09:18:14;4.10;99.90
18456;DHT22;9357;49.900;8.208;2022-12-05T09:19:50;4.10;99.90
18456;DHT22;9357;49.900;8.208;2022-12-05T09:21:25;4.10;99.90
18456;DHT22;9357;49.900;8.208;2022-12-05T09:22:58;4.10;99.90
18456;DHT22;9357;49.900;8.208;2022-12-05T09:24:31;4.10;99.90
18456;DHT22;9357;49.900;8.208;2022-12-05T09:26:05;4.10;99.90
18456;DHT22;9357;49.900;8.208;2022-12-05T09:27:38;4.10;99.90
18456;DHT22;9357;49.900;8.208;2022-12-05T09:29:12;4.10;99.90
18456;DHT22;9357;49.900;8.208;2022-12-05T09:30:55;4.10;99.90
18456;DHT22;9357;49.900;8.208;2022-12-05T09:32:28;4.10;99.90
18456;DHT22;9357;49.900;8.208;2022-12-05T09:34:01;4.10;99.90
18456;DHT22;9357;49.900;8.208;2022-12-05T09:35:38;4.10;99.90
18456;DHT22;9357;49.900;8.208;2022-12-05T09:37:12;4.10;99.90
18456;DHT22;9357;49.900;8.208;2022-12-05T09:39:06;4.00;99.90
18456;DHT22;9357;49.900;8.208;2022-12-05T09:40:41;4.00;99.90
18456;DHT22;9357;49.900;8.208;2022-12-05T09:42:39;4.00;99.90
18456;DHT22;9357;49.900;8.208;2022-12-05T09:44:21;4.00;99.90
18456;DHT22;9357;49.900;8.208;2022-12-05T09:46:00;4.00;99.90
18456;DHT22;9357;49.900;8.208;2022-12-05T09:47:51;4.00;99.90
18456;DHT22;9357;49.900;8.208;2022-12-05T09:49:27;4.00;99.90
18456;DHT22;9357;49.900;8.208;2022-12-05T09:51:02;4.10;99.90
18456;DHT22;9357;49.900;8.208;2022-12-05T09:52:38;4.00;99.90
18456;DHT22;9357;49.900;8.208;2022-12-05T09:54:13;4.10;99.90
18456;DHT22;9357;49.900;8.208;2022-12-05T09:55:50;4.10;99.90
18456;DHT22;9357;49.900;8.208;2022-12-05T09:57:29;4.10;99.90
18456;DHT22;9357;49.900;8.208;2022-12-05T09:59:11;4.10;99.90
18456;DHT22;9357;49.900;8.208;2022-12-05T10:00:47;4.10;99.90
18456;DHT22;9357;49.900;8.208;2022-12-05T10:02:25;4.10;99.90
18456;DHT22;9357;49.900;8.208;2022-12-05T10:04:22;4.20;99.90
18456;DHT22;9357;49.900;8.208;2022-12-05T10:06:05;4.20;99.90
18456;DHT22;9357;49.900;8.208;2022-12-05T10:07:49;4.20;99.90
18456;DHT22;9357;49.900;8.208;2022-12-05T10:09:43;4.30;99.90
18456;DHT22;9357;49.900;8.208;2022-12-05T10:11:26;4.30;99.90
18456;DHT22;9357;49.900;8.208;2022-12-05T10:13:12;4.40;99.90
18456;DHT22;9357;49.900;8.208;2022-12-05T10:14:52;4.40;99.90
18456;DHT22;9357;49.900;8.208;2022-12-05T10:16:31;4.40;99.90
18456;DHT22;9357;49.900;8.208;2022-12-05T10:18:11;4.50;99.90
18456;DHT22;9357;49.900;8.208;2022-12-05T10:19:46;4.50;99.90
18456;DHT22;9357;49.900;8.208;2022-12-05T10:21:26;4.50;99.90
18456;DHT22;9357;49.900;8.208;2022-12-05T10:23:03;4.50;99.90
18456;DHT22;9357;49.900;8.208;2022-12-05T10:24:40;4.50;99.90
18456;DHT22;9357;49.900;8.208;2022-12-05T10:26:15;4.50;99.90
18456;DHT22;9357;49.900;8.208;2022-12-05T10:27:50;4.50;99.90